Terminal Aerodrome Forecast
Issued by NWS

Home | Current Version | Previous Version | Text Only | Print | Product List | Glossary On
Versions: 1 2 3 4 5 6 7 8 9 10 11 12 13 14 15 16 17 18 19 20
000
FTUS43 KDLH 180056 AAA
TAFHYR
TAF AMD
KHYR 180056Z 1801/1824 VRB06G15KT P6SM VCSH OVC009
     FM180200 32004KT P6SM BKN020
     FM180700 VRB03KT 5SM BR SCT025
     FM181400 30005KT P6SM BKN045=

USA.gov is the U.S. government's official web portal to all federal, state and local government web resources and services.